sensor_id;sensor_type;location;lat;lon;timestamp;pressure;altitude;pressure_sealevel;temperature;humidity
41078;BME280;26823;42.662;23.352;2022-09-30T00:01:46;94448.81;;;14.40;100.00
41078;BME280;26823;42.662;23.352;2022-09-30T00:04:18;94460.38;;;14.46;100.00
41078;BME280;26823;42.662;23.352;2022-09-30T00:06:44;94470.97;;;14.47;100.00
41078;BME280;26823;42.662;23.352;2022-09-30T00:09:17;94467.66;;;14.28;100.00
41078;BME280;26823;42.662;23.352;2022-09-30T00:11:42;94477.16;;;14.39;100.00
41078;BME280;26823;42.662;23.352;2022-09-30T00:14:15;94488.09;;;14.48;100.00
41078;BME280;26823;42.662;23.352;2022-09-30T00:16:42;94464.34;;;14.40;100.00
41078;BME280;26823;42.662;23.352;2022-09-30T00:19:08;94473.53;;;14.52;100.00
41078;BME280;26823;42.662;23.352;2022-09-30T00:21:33;94453.09;;;14.32;100.00
41078;BME280;26823;42.662;23.352;2022-09-30T00:23:59;94468.88;;;14.44;100.00
41078;BME280;26823;42.662;23.352;2022-09-30T00:26:25;94464.84;;;14.42;100.00
41078;BME280;26823;42.662;23.352;2022-09-30T00:28:53;94479.63;;;14.49;100.00
41078;BME280;26823;42.662;23.352;2022-09-30T00:31:20;94498.16;;;14.47;100.00
41078;BME280;26823;42.662;23.352;2022-09-30T00:33:47;94499.78;;;14.48;100.00
41078;BME280;26823;42.662;23.352;2022-09-30T00:36:52;94483.72;;;14.38;100.00
41078;BME280;26823;42.662;23.352;2022-09-30T00:39:22;94488.59;;;14.27;100.00
41078;BME280;26823;42.662;23.352;2022-09-30T00:41:51;94482.22;;;14.32;100.00
41078;BME280;26823;42.662;23.352;2022-09-30T00:44:52;94481.78;;;14.39;100.00
41078;BME280;26823;42.662;23.352;2022-09-30T00:47:50;94474.31;;;14.44;100.00
41078;BME280;26823;42.662;23.352;2022-09-30T00:52:44;94446.50;;;14.25;100.00
41078;BME280;26823;42.662;23.352;2022-09-30T00:58:01;94444.66;;;14.11;100.00
41078;BME280;26823;42.662;23.352;2022-09-30T01:00:28;94454.31;;;14.17;100.00
41078;BME280;26823;42.662;23.352;2022-09-30T01:02:54;94468.19;;;14.16;100.00
41078;BME280;26823;42.662;23.352;2022-09-30T01:05:19;94477.50;;;14.15;100.00
41078;BME280;26823;42.662;23.352;2022-09-30T01:07:46;94459.56;;;14.14;100.00
41078;BME280;26823;42.662;23.352;2022-09-30T01:10:11;94468.19;;;14.16;100.00
41078;BME280;26823;42.662;23.352;2022-09-30T01:12:38;94461.19;;;14.15;100.00
41078;BME280;26823;42.662;23.352;2022-09-30T01:15:04;94418.34;;;13.98;100.00
41078;BME280;26823;42.662;23.352;2022-09-30T01:17:49;94454.66;;;14.25;100.00
41078;BME280;26823;42.662;23.352;2022-09-30T01:34:31;94475.63;;;14.01;100.00
41078;BME280;26823;42.662;23.352;2022-09-30T01:37:07;94469.44;;;14.10;100.00
41078;BME280;26823;42.662;23.352;2022-09-30T01:40:02;94469.16;;;14.11;100.00
41078;BME280;26823;42.662;23.352;2022-09-30T01:42:47;94481.78;;;14.16;100.00
41078;BME280;26823;42.662;23.352;2022-09-30T01:50:57;94472.66;;;13.89;100.00
41078;BME280;26823;42.662;23.352;2022-09-30T01:53:30;94472.31;;;13.91;100.00
41078;BME280;26823;42.662;23.352;2022-09-30T01:56:00;94469.72;;;13.85;100.00
41078;BME280;26823;42.662;23.352;2022-09-30T01:58:38;94469.31;;;13.92;100.00
41078;BME280;26823;42.662;23.352;2022-09-30T02:01:15;94461.56;;;13.85;100.00
41078;BME280;26823;42.662;23.352;2022-09-30T02:03:51;94465.25;;;13.81;100.00
41078;BME280;26823;42.662;23.352;2022-09-30T02:06:23;94449.56;;;13.64;100.00
41078;BME280;26823;42.662;23.352;2022-09-30T02:08:53;94465.63;;;13.74;100.00
41078;BME280;26823;42.662;23.352;2022-09-30T02:11:41;94481.03;;;13.79;100.00
41078;BME280;26823;42.662;23.352;2022-09-30T02:14:27;94464.09;;;13.59;100.00
41078;BME280;26823;42.662;23.352;2022-09-30T02:19:45;94480.16;;;13.69;100.00
41078;BME280;26823;42.662;23.352;2022-09-30T02:22:16;94465.44;;;13.48;100.00
41078;BME280;26823;42.662;23.352;2022-09-30T02:24:43;94462.72;;;13.48;100.00
41078;BME280;26823;42.662;23.352;2022-09-30T02:27:15;94481.03;;;13.42;100.00
41078;BME280;26823;42.662;23.352;2022-09-30T02:29:46;94490.56;;;13.53;100.00
41078;BME280;26823;42.662;23.352;2022-09-30T02:32:45;94496.63;;;13.50;100.00
41078;BME280;26823;42.662;23.352;2022-09-30T02:35:29;94485.25;;;13.48;100.00
41078;BME280;26823;42.662;23.352;2022-09-30T02:38:01;94492.19;;;13.54;100.00
41078;BME280;26823;42.662;23.352;2022-09-30T02:40:36;94477.78;;;13.54;100.00
41078;BME280;26823;42.662;23.352;2022-09-30T02:43:04;94488.84;;;13.58;100.00
41078;BME280;26823;42.662;23.352;2022-09-30T02:46:20;94478.63;;;13.41;100.00
41078;BME280;26823;42.662;23.352;2022-09-30T02:51:01;94468.53;;;13.27;100.00
41078;BME280;26823;42.662;23.352;2022-09-30T02:58:41;94492.78;;;13.24;100.00
41078;BME280;26823;42.662;23.352;2022-09-30T03:01:10;94489.66;;;13.30;100.00
41078;BME280;26823;42.662;23.352;2022-09-30T03:03:49;94495.22;;;13.39;100.00
41078;BME280;26823;42.662;23.352;2022-09-30T03:06:16;94452.25;;;13.13;100.00
41078;BME280;26823;42.662;23.352;2022-09-30T03:08:42;94498.59;;;13.31;100.00
41078;BME280;26823;42.662;23.352;2022-09-30T03:11:21;94509.69;;;13.34;100.00
41078;BME280;26823;42.662;23.352;2022-09-30T03:19:34;94496.88;;;13.35;100.00
41078;BME280;26823;42.662;23.352;2022-09-30T03:22:37;94513.63;;;13.42;100.00
41078;BME280;26823;42.662;23.352;2022-09-30T03:30:36;94489.16;;;13.28;100.00
41078;BME280;26823;42.662;23.352;2022-09-30T03:33:22;94504.47;;;13.38;100.00
41078;BME280;26823;42.662;23.352;2022-09-30T03:35:57;94514.41;;;13.57;100.00
41078;BME280;26823;42.662;23.352;2022-09-30T03:38:51;94518.72;;;13.58;100.00
41078;BME280;26823;42.662;23.352;2022-09-30T03:41:35;94517.94;;;13.57;100.00
41078;BME280;26823;42.662;23.352;2022-09-30T03:46:35;94510.97;;;13.65;100.00
41078;BME280;26823;42.662;23.352;2022-09-30T03:49:06;94507.84;;;13.58;100.00
41078;BME280;26823;42.662;23.352;2022-09-30T03:51:37;94521.75;;;13.56;100.00
41078;BME280;26823;42.662;23.352;2022-09-30T03:54:08;94517.72;;;13.53;100.00
41078;BME280;26823;42.662;23.352;2022-09-30T03:56:34;94525.19;;;13.62;100.00
41078;BME280;26823;42.662;23.352;2022-09-30T03:59:01;94530.22;;;13.54;100.00
41078;BME280;26823;42.662;23.352;2022-09-30T04:01:27;94536.31;;;13.60;100.00
41078;BME280;26823;42.662;23.352;2022-09-30T04:03:53;94520.75;;;13.52;100.00
41078;BME280;26823;42.662;23.352;2022-09-30T04:06:21;94528.09;;;13.51;100.00
41078;BME280;26823;42.662;23.352;2022-09-30T04:08:47;94530.91;;;13.46;100.00
41078;BME280;26823;42.662;23.352;2022-09-30T04:11:13;94522.84;;;13.27;100.00
41078;BME280;26823;42.662;23.352;2022-09-30T04:13:38;94523.78;;;13.36;100.00
41078;BME280;26823;42.662;23.352;2022-09-30T04:16:05;94532.22;;;13.49;100.00
41078;BME280;26823;42.662;23.352;2022-09-30T04:18:31;94523.88;;;13.31;100.00
41078;BME280;26823;42.662;23.352;2022-09-30T04:20:57;94533.72;;;13.41;100.00
41078;BME280;26823;42.662;23.352;2022-09-30T04:23:23;94529.41;;;13.40;100.00
41078;BME280;26823;42.662;23.352;2022-09-30T04:25:53;94526.06;;;13.29;100.00
41078;BME280;26823;42.662;23.352;2022-09-30T04:28:19;94511.28;;;13.35;100.00
41078;BME280;26823;42.662;23.352;2022-09-30T04:30:44;94502.44;;;13.30;100.00
41078;BME280;26823;42.662;23.352;2022-09-30T04:33:10;94522.66;;;13.37;100.00
41078;BME280;26823;42.662;23.352;2022-09-30T04:35:37;94546.84;;;13.39;100.00
41078;BME280;26823;42.662;23.352;2022-09-30T04:38:03;94533.44;;;13.29;100.00
41078;BME280;26823;42.662;23.352;2022-09-30T04:40:34;94549.91;;;13.32;100.00
41078;BME280;26823;42.662;23.352;2022-09-30T04:43:00;94532.72;;;13.23;100.00
41078;BME280;26823;42.662;23.352;2022-09-30T04:45:25;94529.09;;;13.28;100.00
41078;BME280;26823;42.662;23.352;2022-09-30T04:47:51;94550.31;;;13.26;100.00
41078;BME280;26823;42.662;23.352;2022-09-30T04:50:17;94547.41;;;13.22;100.00
41078;BME280;26823;42.662;23.352;2022-09-30T04:52:48;94560.06;;;13.27;100.00
41078;BME280;26823;42.662;23.352;2022-09-30T04:55:14;94562.38;;;13.19;100.00
41078;BME280;26823;42.662;23.352;2022-09-30T04:57:43;94582.00;;;13.30;100.00
41078;BME280;26823;42.662;23.352;2022-09-30T05:00:09;94583.59;;;12.89;100.00
41078;BME280;26823;42.662;23.352;2022-09-30T05:02:34;94586.75;;;12.78;100.00
41078;BME280;26823;42.662;23.352;2022-09-30T05:05:00;94582.75;;;12.89;100.00
41078;BME280;26823;42.662;23.352;2022-09-30T05:07:26;94590.81;;;12.94;100.00
41078;BME280;26823;42.662;23.352;2022-09-30T05:09:51;94568.19;;;12.99;100.00
41078;BME280;26823;42.662;23.352;2022-09-30T05:12:17;94553.78;;;12.84;100.00
41078;BME280;26823;42.662;23.352;2022-09-30T05:14:43;94569.91;;;12.95;100.00
41078;BME280;26823;42.662;23.352;2022-09-30T05:17:08;94558.03;;;13.04;100.00
41078;BME280;26823;42.662;23.352;2022-09-30T05:19:34;94563.84;;;12.84;100.00
41078;BME280;26823;42.662;23.352;2022-09-30T05:22:00;94605.19;;;12.95;100.00
41078;BME280;26823;42.662;23.352;2022-09-30T05:24:25;94595.88;;;13.01;100.00
41078;BME280;26823;42.662;23.352;2022-09-30T05:26:50;94559.63;;;12.92;100.00
41078;BME280;26823;42.662;23.352;2022-09-30T05:29:16;94604.94;;;13.24;100.00
41078;BME280;26823;42.662;23.352;2022-09-30T05:31:41;94596.69;;;13.29;100.00
41078;BME280;26823;42.662;23.352;2022-09-30T05:34:07;94595.72;;;13.39;100.00
41078;BME280;26823;42.662;23.352;2022-09-30T05:36:33;94589.38;;;13.44;100.00
41078;BME280;26823;42.662;23.352;2022-09-30T05:38:58;94600.53;;;13.56;100.00
41078;BME280;26823;42.662;23.352;2022-09-30T05:41:23;94603.56;;;13.54;100.00
41078;BME280;26823;42.662;23.352;2022-09-30T05:43:49;94604.69;;;13.53;100.00
41078;BME280;26823;42.662;23.352;2022-09-30T05:46:16;94630.75;;;13.54;100.00
41078;BME280;26823;42.662;23.352;2022-09-30T05:48:42;94624.59;;;13.49;100.00
41078;BME280;26823;42.662;23.352;2022-09-30T05:51:08;94616.50;;;13.30;100.00
41078;BME280;26823;42.662;23.352;2022-09-30T05:53:35;94638.38;;;13.52;100.00
41078;BME280;26823;42.662;23.352;2022-09-30T05:56:06;94626.41;;;13.53;100.00
41078;BME280;26823;42.662;23.352;2022-09-30T05:58:32;94628.72;;;13.60;100.00
41078;BME280;26823;42.662;23.352;2022-09-30T06:01:05;94640.00;;;13.67;100.00
41078;BME280;26823;42.662;23.352;2022-09-30T06:03:32;94626.63;;;13.71;100.00
41078;BME280;26823;42.662;23.352;2022-09-30T06:05:58;94626.72;;;13.80;100.00
41078;BME280;26823;42.662;23.352;2022-09-30T06:08:23;94631.41;;;13.88;100.00
41078;BME280;26823;42.662;23.352;2022-09-30T06:10:49;94634.97;;;13.89;100.00
41078;BME280;26823;42.662;23.352;2022-09-30T06:13:14;94635.28;;;13.87;100.00
41078;BME280;26823;42.662;23.352;2022-09-30T06:15:53;94630.13;;;13.72;100.00
41078;BME280;26823;42.662;23.352;2022-09-30T06:18:18;94633.66;;;13.72;100.00
41078;BME280;26823;42.662;23.352;2022-09-30T06:20:45;94644.44;;;13.77;100.00
41078;BME280;26823;42.662;23.352;2022-09-30T06:23:11;94631.16;;;13.76;100.00
41078;BME280;26823;42.662;23.352;2022-09-30T06:25:36;94642.03;;;13.76;100.00
41078;BME280;26823;42.662;23.352;2022-09-30T06:28:01;94634.47;;;13.73;100.00
41078;BME280;26823;42.662;23.352;2022-09-30T06:30:30;94645.03;;;13.74;100.00
41078;BME280;26823;42.662;23.352;2022-09-30T06:32:56;94663.47;;;13.77;100.00
41078;BME280;26823;42.662;23.352;2022-09-30T06:35:21;94649.97;;;13.86;100.00
41078;BME280;26823;42.662;23.352;2022-09-30T06:37:52;94629.84;;;13.87;100.00
41078;BME280;26823;42.662;23.352;2022-09-30T06:40:18;94649.22;;;14.08;100.00
41078;BME280;26823;42.662;23.352;2022-09-30T06:42:46;94658.28;;;14.17;100.00
41078;BME280;26823;42.662;23.352;2022-09-30T06:45:12;94653.97;;;14.16;100.00
41078;BME280;26823;42.662;23.352;2022-09-30T06:47:38;94665.81;;;14.21;100.00
41078;BME280;26823;42.662;23.352;2022-09-30T06:50:08;94687.53;;;14.48;100.00
41078;BME280;26823;42.662;23.352;2022-09-30T06:52:34;94670.72;;;14.32;100.00
41078;BME280;26823;42.662;23.352;2022-09-30T06:55:00;94689.16;;;14.49;100.00
41078;BME280;26823;42.662;23.352;2022-09-30T06:57:25;94693.25;;;14.61;100.00
41078;BME280;26823;42.662;23.352;2022-09-30T06:59:52;94680.78;;;14.46;100.00
41078;BME280;26823;42.662;23.352;2022-09-30T07:02:19;94700.78;;;14.64;100.00
41078;BME280;26823;42.662;23.352;2022-09-30T07:04:45;94709.34;;;14.85;100.00
41078;BME280;26823;42.662;23.352;2022-09-30T07:07:13;94690.66;;;14.92;100.00
41078;BME280;26823;42.662;23.352;2022-09-30T07:09:38;94690.78;;;14.87;100.00
41078;BME280;26823;42.662;23.352;2022-09-30T07:12:04;94700.06;;;14.86;100.00
41078;BME280;26823;42.662;23.352;2022-09-30T07:14:30;94711.88;;;15.04;100.00
41078;BME280;26823;42.662;23.352;2022-09-30T07:16:56;94712.91;;;14.94;100.00
41078;BME280;26823;42.662;23.352;2022-09-30T07:19:22;94723.50;;;15.41;100.00
41078;BME280;26823;42.662;23.352;2022-09-30T07:21:48;94722.31;;;15.56;100.00
41078;BME280;26823;42.662;23.352;2022-09-30T07:24:15;94712.25;;;15.34;100.00
41078;BME280;26823;42.662;23.352;2022-09-30T07:26:40;94717.34;;;15.58;100.00
41078;BME280;26823;42.662;23.352;2022-09-30T07:29:06;94718.47;;;15.57;100.00
41078;BME280;26823;42.662;23.352;2022-09-30T07:31:31;94718.56;;;15.75;100.00
41078;BME280;26823;42.662;23.352;2022-09-30T07:33:58;94740.63;;;15.87;100.00
41078;BME280;26823;42.662;23.352;2022-09-30T07:36:25;94740.56;;;15.78;100.00
41078;BME280;26823;42.662;23.352;2022-09-30T07:38:56;94742.94;;;16.03;100.00
41078;BME280;26823;42.662;23.352;2022-09-30T07:41:26;94737.91;;;15.96;100.00
41078;BME280;26823;42.662;23.352;2022-09-30T07:43:54;94722.03;;;15.98;100.00
41078;BME280;26823;42.662;23.352;2022-09-30T07:46:29;94738.56;;;16.42;100.00
41078;BME280;26823;42.662;23.352;2022-09-30T07:48:57;94686.69;;;16.33;100.00
41078;BME280;26823;42.662;23.352;2022-09-30T07:51:28;94731.91;;;17.27;100.00
41078;BME280;26823;42.662;23.352;2022-09-30T07:53:59;94713.50;;;18.10;95.57
41078;BME280;26823;42.662;23.352;2022-09-30T07:56:26;94730.69;;;18.79;90.61
41078;BME280;26823;42.662;23.352;2022-09-30T07:58:56;94733.94;;;18.51;90.13
41078;BME280;26823;42.662;23.352;2022-09-30T08:01:25;94733.41;;;18.58;89.67
41078;BME280;26823;42.662;23.352;2022-09-30T08:03:55;94728.34;;;18.69;86.07
41078;BME280;26823;42.662;23.352;2022-09-30T08:06:22;94753.50;;;18.92;85.88
41078;BME280;26823;42.662;23.352;2022-09-30T08:08:55;94757.53;;;18.95;85.21
41078;BME280;26823;42.662;23.352;2022-09-30T08:11:23;94763.75;;;19.04;84.68
41078;BME280;26823;42.662;23.352;2022-09-30T08:13:53;94750.91;;;19.17;82.94
41078;BME280;26823;42.662;23.352;2022-09-30T08:16:20;94760.88;;;19.21;82.51
41078;BME280;26823;42.662;23.352;2022-09-30T08:18:46;94756.47;;;19.29;83.83
41078;BME280;26823;42.662;23.352;2022-09-30T08:21:12;94765.47;;;19.51;81.86
41078;BME280;26823;42.662;23.352;2022-09-30T08:23:38;94766.06;;;19.56;81.80
41078;BME280;26823;42.662;23.352;2022-09-30T08:26:11;94767.53;;;19.33;80.57
41078;BME280;26823;42.662;23.352;2022-09-30T08:28:37;94764.00;;;19.11;81.81
41078;BME280;26823;42.662;23.352;2022-09-30T08:31:09;94772.25;;;19.32;82.95
41078;BME280;26823;42.662;23.352;2022-09-30T08:33:48;94757.25;;;19.30;81.44
41078;BME280;26823;42.662;23.352;2022-09-30T08:36:17;94774.06;;;19.28;80.89
41078;BME280;26823;42.662;23.352;2022-09-30T08:38:43;94771.25;;;19.37;83.65
41078;BME280;26823;42.662;23.352;2022-09-30T08:43:57;94774.78;;;19.37;79.23
41078;BME280;26823;42.662;23.352;2022-09-30T08:51:42;94775.03;;;19.45;75.16
41078;BME280;26823;42.662;23.352;2022-09-30T08:54:13;94787.16;;;19.44;74.48
41078;BME280;26823;42.662;23.352;2022-09-30T08:56:41;94789.03;;;19.31;77.86
41078;BME280;26823;42.662;23.352;2022-09-30T08:59:26;94797.22;;;19.52;77.44
41078;BME280;26823;42.662;23.352;2022-09-30T09:01:59;94797.78;;;20.00;75.30
41078;BME280;26823;42.662;23.352;2022-09-30T09:04:26;94780.75;;;20.19;75.30
41078;BME280;26823;42.662;23.352;2022-09-30T09:09:47;94800.84;;;21.06;71.99
41078;BME280;26823;42.662;23.352;2022-09-30T09:12:40;94800.53;;;20.95;70.97
41078;BME280;26823;42.662;23.352;2022-09-30T09:20:57;94785.13;;;20.20;73.67
41078;BME280;26823;42.662;23.352;2022-09-30T09:23:26;94790.03;;;20.27;75.17
41078;BME280;26823;42.662;23.352;2022-09-30T09:25:55;94801.50;;;20.41;73.36
41078;BME280;26823;42.662;23.352;2022-09-30T09:30:50;94805.88;;;20.67;72.59
41078;BME280;26823;42.662;23.352;2022-09-30T09:33:21;94798.00;;;20.90;72.58
41078;BME280;26823;42.662;23.352;2022-09-30T09:35:53;94801.66;;;20.94;70.66
41078;BME280;26823;42.662;23.352;2022-09-30T09:41:28;94800.88;;;20.81;69.54
41078;BME280;26823;42.662;23.352;2022-09-30T09:47:11;94794.44;;;20.90;69.53
41078;BME280;26823;42.662;23.352;2022-09-30T09:49:43;94808.53;;;21.00;64.86
41078;BME280;26823;42.662;23.352;2022-09-30T09:55:13;94800.94;;;21.63;66.18
41078;BME280;26823;42.662;23.352;2022-09-30T09:57:32;94794.09;;;21.57;64.38
41078;BME280;26823;42.662;23.352;2022-09-30T10:03:00;94815.94;;;21.94;64.48
41078;BME280;26823;42.662;23.352;2022-09-30T10:05:26;94811.53;;;22.05;62.61
41078;BME280;26823;42.662;23.352;2022-09-30T10:08:13;94798.94;;;22.04;59.72
41078;BME280;26823;42.662;23.352;2022-09-30T10:10:55;94803.22;;;22.18;59.49
41078;BME280;26823;42.662;23.352;2022-09-30T10:13:23;94796.75;;;22.26;58.87
41078;BME280;26823;42.662;23.352;2022-09-30T10:15:53;94798.81;;;22.61;59.65
41078;BME280;26823;42.662;23.352;2022-09-30T10:18:40;94792.88;;;23.10;59.85
41078;BME280;26823;42.662;23.352;2022-09-30T10:21:21;94791.72;;;23.11;56.25
41078;BME280;26823;42.662;23.352;2022-09-30T10:23:47;94773.63;;;22.94;55.12
41078;BME280;26823;42.662;23.352;2022-09-30T10:31:40;94768.50;;;23.28;57.40
41078;BME280;26823;42.662;23.352;2022-09-30T10:36:51;94783.25;;;23.75;57.08
41078;BME280;26823;42.662;23.352;2022-09-30T10:39:33;94752.16;;;23.39;55.07
41078;BME280;26823;42.662;23.352;2022-09-30T10:44:45;94780.88;;;23.38;53.93
41078;BME280;26823;42.662;23.352;2022-09-30T10:47:16;94781.00;;;23.61;52.21
41078;BME280;26823;42.662;23.352;2022-09-30T10:52:30;94781.06;;;24.04;49.93
41078;BME280;26823;42.662;23.352;2022-09-30T10:55:05;94772.09;;;24.11;51.39
41078;BME280;26823;42.662;23.352;2022-09-30T10:57:32;94775.19;;;24.29;52.02
41078;BME280;26823;42.662;23.352;2022-09-30T11:00:05;94784.22;;;24.26;50.96
41078;BME280;26823;42.662;23.352;2022-09-30T11:05:23;94779.53;;;24.53;48.70
41078;BME280;26823;42.662;23.352;2022-09-30T11:10:29;94773.81;;;24.19;46.75
41078;BME280;26823;42.662;23.352;2022-09-30T11:13:06;94767.75;;;24.10;46.43
41078;BME280;26823;42.662;23.352;2022-09-30T11:23:52;94746.97;;;23.97;42.57
41078;BME280;26823;42.662;23.352;2022-09-30T11:31:29;94790.56;;;25.00;43.63
41078;BME280;26823;42.662;23.352;2022-09-30T11:34:21;94785.03;;;25.27;43.27
41078;BME280;26823;42.662;23.352;2022-09-30T11:41:56;94786.00;;;26.02;40.62
41078;BME280;26823;42.662;23.352;2022-09-30T11:44:34;94784.34;;;26.32;37.74
41078;BME280;26823;42.662;23.352;2022-09-30T11:47:17;94792.38;;;26.44;37.13
41078;BME280;26823;42.662;23.352;2022-09-30T11:58:08;94777.56;;;25.58;39.97
41078;BME280;26823;42.662;23.352;2022-09-30T12:00:39;94779.09;;;25.85;38.22
41078;BME280;26823;42.662;23.352;2022-09-30T12:05:53;94775.53;;;25.54;35.95
41078;BME280;26823;42.662;23.352;2022-09-30T12:08:32;94781.88;;;25.28;35.97
41078;BME280;26823;42.662;23.352;2022-09-30T12:11:08;94771.72;;;25.36;35.51
41078;BME280;26823;42.662;23.352;2022-09-30T12:13:56;94776.81;;;25.34;36.67
41078;BME280;26823;42.662;23.352;2022-09-30T12:16:28;94782.72;;;25.59;38.51
41078;BME280;26823;42.662;23.352;2022-09-30T12:18:59;94801.59;;;25.84;39.82
41078;BME280;26823;42.662;23.352;2022-09-30T12:21:35;94796.66;;;26.00;39.37
41078;BME280;26823;42.662;23.352;2022-09-30T12:24:15;94796.41;;;26.13;39.59
41078;BME280;26823;42.662;23.352;2022-09-30T12:26:43;94794.13;;;26.18;40.99
41078;BME280;26823;42.662;23.352;2022-09-30T12:38:01;94806.31;;;25.80;39.92
41078;BME280;26823;42.662;23.352;2022-09-30T12:46:58;94806.13;;;26.33;37.52
41078;BME280;26823;42.662;23.352;2022-09-30T12:49:28;94795.94;;;26.41;36.45
41078;BME280;26823;42.662;23.352;2022-09-30T12:51:58;94785.31;;;26.50;35.55
41078;BME280;26823;42.662;23.352;2022-09-30T12:57:26;94798.25;;;26.77;37.13
41078;BME280;26823;42.662;23.352;2022-09-30T12:59:56;94804.69;;;26.88;38.23
41078;BME280;26823;42.662;23.352;2022-09-30T13:05:56;94800.78;;;26.51;35.62
41078;BME280;26823;42.662;23.352;2022-09-30T13:13:14;94808.63;;;26.46;37.42
41078;BME280;26823;42.662;23.352;2022-09-30T13:15:44;94805.19;;;26.60;37.00
41078;BME280;26823;42.662;23.352;2022-09-30T13:26:03;94807.78;;;26.79;36.15
41078;BME280;26823;42.662;23.352;2022-09-30T13:28:37;94801.03;;;26.80;37.20
41078;BME280;26823;42.662;23.352;2022-09-30T13:31:16;94811.06;;;26.92;36.40
41078;BME280;26823;42.662;23.352;2022-09-30T13:36:39;94809.31;;;26.73;36.34
41078;BME280;26823;42.662;23.352;2022-09-30T13:39:19;94812.09;;;26.35;33.88
41078;BME280;26823;42.662;23.352;2022-09-30T13:47:27;94814.00;;;26.28;36.70
41078;BME280;26823;42.662;23.352;2022-09-30T13:52:33;94818.06;;;26.03;36.68
41078;BME280;26823;42.662;23.352;2022-09-30T13:55:12;94797.34;;;25.60;37.30
41078;BME280;26823;42.662;23.352;2022-09-30T14:00:19;94820.72;;;25.62;37.79
41078;BME280;26823;42.662;23.352;2022-09-30T14:03:05;94821.75;;;25.50;37.45
41078;BME280;26823;42.662;23.352;2022-09-30T14:05:44;94808.97;;;25.42;37.28
41078;BME280;26823;42.662;23.352;2022-09-30T14:14:10;94828.09;;;25.51;37.34
41078;BME280;26823;42.662;23.352;2022-09-30T14:22:05;94831.44;;;25.37;38.40
41078;BME280;26823;42.662;23.352;2022-09-30T14:24:34;94835.00;;;25.11;39.37
41078;BME280;26823;42.662;23.352;2022-09-30T14:33:11;94844.38;;;24.79;37.97
41078;BME280;26823;42.662;23.352;2022-09-30T14:35:39;94839.63;;;24.56;39.50
41078;BME280;26823;42.662;23.352;2022-09-30T14:38:12;94844.72;;;24.54;39.61
41078;BME280;26823;42.662;23.352;2022-09-30T14:40:40;94840.97;;;24.43;39.47
41078;BME280;26823;42.662;23.352;2022-09-30T14:43:15;94839.09;;;24.27;41.00
41078;BME280;26823;42.662;23.352;2022-09-30T14:45:45;94817.84;;;24.08;38.88
41078;BME280;26823;42.662;23.352;2022-09-30T14:48:21;94846.94;;;24.25;39.98
41078;BME280;26823;42.662;23.352;2022-09-30T14:53:34;94858.91;;;24.10;39.83
41078;BME280;26823;42.662;23.352;2022-09-30T14:56:02;94854.75;;;24.00;39.72
41078;BME280;26823;42.662;23.352;2022-09-30T14:58:38;94857.22;;;23.86;42.26
41078;BME280;26823;42.662;23.352;2022-09-30T15:03:40;94869.91;;;23.71;42.02
41078;BME280;26823;42.662;23.352;2022-09-30T15:06:20;94857.34;;;23.54;42.01
41078;BME280;26823;42.662;23.352;2022-09-30T15:08:47;94864.38;;;23.51;41.80
41078;BME280;26823;42.662;23.352;2022-09-30T15:11:17;94866.69;;;23.49;43.06
41078;BME280;26823;42.662;23.352;2022-09-30T15:13:43;94866.78;;;23.37;42.74
41078;BME280;26823;42.662;23.352;2022-09-30T15:16:26;94872.78;;;23.23;42.11
41078;BME280;26823;42.662;23.352;2022-09-30T15:18:52;94858.47;;;23.17;42.43
41078;BME280;26823;42.662;23.352;2022-09-30T15:21:19;94867.19;;;23.19;42.43
41078;BME280;26823;42.662;23.352;2022-09-30T15:23:48;94859.06;;;23.10;43.18
41078;BME280;26823;42.662;23.352;2022-09-30T15:26:20;94872.16;;;23.13;42.57
41078;BME280;26823;42.662;23.352;2022-09-30T15:28:46;94863.63;;;23.03;43.35
41078;BME280;26823;42.662;23.352;2022-09-30T15:31:33;94858.41;;;22.82;43.05
41078;BME280;26823;42.662;23.352;2022-09-30T15:34:19;94888.56;;;22.90;42.30
41078;BME280;26823;42.662;23.352;2022-09-30T15:36:47;94866.75;;;22.69;43.38
41078;BME280;26823;42.662;23.352;2022-09-30T15:39:22;94903.50;;;22.89;44.12
41078;BME280;26823;42.662;23.352;2022-09-30T15:41:50;94882.13;;;22.70;43.94
41078;BME280;26823;42.662;23.352;2022-09-30T15:44:35;94896.03;;;22.74;44.79
41078;BME280;26823;42.662;23.352;2022-09-30T15:47:03;94903.47;;;22.57;45.32
41078;BME280;26823;42.662;23.352;2022-09-30T15:49:32;94912.78;;;22.53;45.80
41078;BME280;26823;42.662;23.352;2022-09-30T15:52:38;94920.06;;;22.45;46.77
41078;BME280;26823;42.662;23.352;2022-09-30T15:55:34;94913.78;;;22.32;46.76
41078;BME280;26823;42.662;23.352;2022-09-30T15:58:02;94922.53;;;22.22;47.63
41078;BME280;26823;42.662;23.352;2022-09-30T16:00:36;94926.03;;;22.06;48.02
41078;BME280;26823;42.662;23.352;2022-09-30T16:03:26;94927.53;;;22.04;47.98
41078;BME280;26823;42.662;23.352;2022-09-30T16:06:03;94929.53;;;21.91;49.17
41078;BME280;26823;42.662;23.352;2022-09-30T16:08:31;94931.88;;;21.76;48.83
41078;BME280;26823;42.662;23.352;2022-09-30T16:11:01;94936.25;;;21.53;48.62
41078;BME280;26823;42.662;23.352;2022-09-30T16:13:28;94925.34;;;21.44;48.26
41078;BME280;26823;42.662;23.352;2022-09-30T16:15:55;94948.03;;;21.53;47.57
41078;BME280;26823;42.662;23.352;2022-09-30T16:18:29;94950.00;;;21.53;48.23
41078;BME280;26823;42.662;23.352;2022-09-30T16:21:00;94956.16;;;21.49;48.17
41078;BME280;26823;42.662;23.352;2022-09-30T16:23:34;94953.88;;;21.51;47.52
41078;BME280;26823;42.662;23.352;2022-09-30T16:26:20;94961.34;;;21.51;47.84